Mt. Lincoln Summit Weather observations

Data are for 10 minute period ending at time listed.
 Day   Time   Solar   Ave.   Ave.  Ave.  Vector    Max.   Stn.  
  of    of     Rad.   Air    Rel.  Wind   Wind     Wind   Baro.  
Year   Day            Temp.  Hum.  Speed  Dir.     Gust   Pres. 
2016   (PST)   W/m2    F      %     mph   deg.      mph    mb    
-----------------------------------------------------------------
 125    0:00  999.0    41   85.9     5    174.1     6.2   557.00
 125    0:10  999.0    41   86.0     4    171.3     6.4   556.50
 125    0:20  999.0    41   85.9     4    178.8     6.7   557.60
 125    0:30  999.0    41   86.0     6    185.2     7.8   555.40
 125    0:40  999.0    41   86.0     6    186.4     7.8   557.50
 125    0:50  999.0    41   85.9     6    184.1     7.6   554.00
 125    1:00  999.0    40   85.7     4    177.7     5.6   552.60
 125    1:10  999.0    40   85.8     4    186.4     6.2   556.70
 125    1:20  999.0    40   86.0     6    201.3     8.5   555.80
 125    1:30  999.0    40   86.0     7    202.3     8.1   557.40
 125    1:40  999.0    40   85.9     7    200.5     8.0   552.70
 125    1:50  999.0    40   85.9     7    196.5     9.2   551.30
 125    2:00  999.0    41   86.0     7    192.9     8.7   554.30
 125    2:10  999.0    41   86.2     8    189.4    10.2   554.90
 125    2:20  999.0    41   86.1     7    182.6    10.4   554.00
 125    2:30  999.0    41   86.0     8    179.8     9.9   551.50
 125    2:40  999.0    41   86.0     8    181.1    10.1   555.30
 125    2:50  999.0    41   85.9     8    188.8     9.4   555.20
 125    3:00  999.0    41   86.0     7    186.9     9.3   555.80
 125    3:10  999.0    41   85.9     7    187.0     9.7   556.70
 125    3:20  999.0    41   85.8     7    184.0     9.1   556.70
 125    3:30  999.0    41   85.8     7    181.6     8.2   558.80
 125    3:40  999.0    41   85.8     7    178.4     8.4   556.60
 125    3:50  999.0    41   85.7     6    181.5     7.9   558.50
 125    4:00  999.0    41   85.7     7    178.9     9.2   561.90
 125    4:10  999.0    41   85.6     5    169.1     6.5   562.50
 125    4:20  999.0    41   85.7     5    164.6     6.6   559.70
 125    4:30  999.0    41   85.6     5    159.9     7.1   557.00
 125    4:40  999.0    41   85.7     6    162.6     7.9   557.50
 125    4:50  999.0    41   85.7     5    163.8     7.1   561.70
 125    5:00  999.0    41   85.6     5    163.0     6.6   561.30
 125    5:10  999.0    41   85.7     7    164.6     9.8   559.10
 125    5:20  999.0    41   85.6     7    170.3     9.2   559.50
 125    5:30  999.0    41   85.5     7    167.8     8.5   558.90
 125    5:40  999.0    41   85.4     7    170.9     9.4   555.80
 125    5:50  999.0    41   85.3     7    172.5     8.8   555.20
 125    6:00  999.0    42   85.2     7    173.8     8.1   556.80
 125    6:10  999.0    42   85.1     7    174.1     9.5   557.90
 125    6:20  999.0    42   84.9     7    175.2     8.5   558.80
 125    6:30  999.0    42   84.7     6    174.8     7.8   561.80
 125    6:40  999.0    42   84.7     7    179.4     8.9   557.90
 125    6:50  999.0    42   84.7     8    173.3    10.7   558.00
 125    7:00  999.0    43   84.4     7    167.5     9.6   561.10
 125    7:10  999.0    43   84.3     7    162.8     9.2   560.80
 125    7:20  999.0    44   84.0     8    168.6    10.7   557.90
 125    7:30  999.0    44   83.6     7    165.5     8.4   557.10
 125    7:40  999.0    44   83.3     7    165.4     9.6   556.60
 125    7:50  999.0    45   82.8     7    166.0     9.7   557.40
 125    8:00  999.0    45   82.3     8    174.1     9.6   559.60
 125    8:10  999.0    45   81.8     7    169.3     9.5   558.60
 125    8:20  999.0    46   81.6     8    174.7    10.3   564.00
 125    8:30  999.0    48   80.3     7    176.5     9.4   561.90
 125    8:40  999.0    48   79.5     8    174.8    10.3   563.00
 125    8:50  999.0    48   79.3     7    180.8    10.4   568.90
 125    9:00  999.0    49   78.7     7    173.4     9.8   563.80
 125    9:10  999.0    49   78.4     7    180.1     9.5   562.70
 125    9:20  999.0    49   78.4     7    182.9    10.5   563.40
 125    9:30  999.0    47   78.5     7    188.0    12.3   562.60
 125    9:40  999.0    44   79.6     7    190.3    10.7   564.30
 125    9:50  999.0    44   80.7     4    196.0     7.4   565.40
 125   10:00  999.0    47   80.3     4    193.4     6.2   564.90
 125   10:10  999.0    49   78.5     5    183.1     6.6   563.80
 125   10:20  999.0    51   76.8     8    178.5    10.8   565.20
 125   10:30  999.0    51   76.7     7    183.6     9.1   564.20
 125   10:40  999.0    51   76.3     8    185.0    10.1   563.20
 125   10:50  999.0    52   76.2     7    180.2    12.3   567.20
 125   11:00  999.0    54   75.9     4    174.3     5.3   565.80
 125   11:10  999.0    55   75.0     4    160.7     5.9   566.10
 125   11:20  999.0    53   75.0     5    170.7     7.7   566.70
 125   11:30  999.0    53   75.8     5    165.3     7.1   567.90
 125   11:40  999.0    54   75.3     6    177.4     9.6   566.70
 125   11:50  999.0    55   74.1     8    183.1    10.9   569.10
 125   12:00  999.0    54   73.6     8    184.4    13.4   572.20
 125   12:10  999.0    52   74.8     6    187.2    10.2   574.30
 125   12:20  999.0    52   75.6     7    181.3    10.8   578.30
 125   12:30  999.0    52   76.0     5    190.9     8.4   576.20
 125   12:40  999.0    53   75.8     7    188.3     9.2   572.40
 125   12:50  999.0    54   75.2     6    192.8     8.9   569.00
 125   13:00  999.0    53   75.6     5    209.6     7.9   573.60
 125   13:10  999.0    51   76.7     4    218.9     6.8   574.50
 125   13:20  999.0    49   78.2     5    212.1     8.0   572.40
 125   13:30  999.0    46   79.3     5    193.9     7.8   574.70
 125   13:40  999.0    45   80.8     7    197.0    10.1   574.50
 125   13:50  999.0    46   80.8     8    144.3    16.1   574.90
 125   14:00  999.0    45   80.2     7    166.2    14.3   577.10
 125   14:10  999.0    44   81.0     9    167.3    13.0   578.10
 125   14:20  999.0    42   81.3     6    182.8    15.7   575.00
 125   14:30  999.0    41   82.1     3    186.2     4.2   571.00
 125   14:40  999.0    42   82.2     3    185.8     3.9   570.80
 125   14:50  999.0    45   81.3     3    191.2     3.7   569.40
 125   15:00  999.0    48   78.7     3    184.5     4.4   568.40
 125   15:10  999.0    49   78.0     2    177.3     3.1   572.40
 125   15:20  999.0    49   77.5     2    157.7     2.1   570.30
 125   15:30  999.0    47   78.2     2    180.9     2.6   566.80
 125   15:40  999.0    46   79.9     2    217.0     2.1   567.50
 125   15:50  999.0    45   80.8     1    244.9     2.6   568.30
 125   16:00  999.0    44   81.9     1    258.9     2.0   567.60
 125   16:10  999.0    44   82.3     1    268.1     2.9   565.10
 125   16:20  999.0    44   82.3     1    149.4     2.8   568.80
 125   16:30  999.0    44   82.3     2    213.1     3.6   567.90
 125   16:40  999.0    44   82.0     2    212.9     3.2   570.50
 125   16:50  999.0    43   82.2     2    254.8     2.6   567.60
 125   17:00  999.0    42   82.8     2    232.0     3.3   564.50
 125   17:10  999.0    41   83.1     3    239.6     3.3   565.50
 125   17:20  999.0    41   83.4     3    238.0     3.3   563.10
 125   17:30  999.0    41   83.5     2    235.4     3.5   566.00
 125   17:40  999.0    41   83.7     2    235.6     2.8   566.30
 125   17:50  999.0    40   83.7     2    241.3     2.6   562.10
 125   18:00  999.0    40   83.8     2    244.2     2.4   560.50
 125   18:10  999.0    40   83.9     1    245.5     2.3   566.10
 125   18:20  999.0    40   83.9     2    231.0     2.0   567.70
 125   18:30  999.0    40   84.0     2    231.0     2.5   563.50
 125   18:40  999.0    40   84.0     2    244.7     2.4   564.00
 125   18:50  999.0    40   84.1     2    237.0     2.9   565.60
 125   19:00  999.0    40   84.1     2    233.0     2.9   564.40

Return to Mt. Lincoln graphs page.


Western Regional Climate Center,wrcc@dri.edu